sensor_id;sensor_type;location;lat;lon;timestamp;temperature;humidity
23143;DHT22;11740;51.168;4.112;2022-07-06T00:01:10;17.80;99.90
23143;DHT22;11740;51.168;4.112;2022-07-06T00:03:37;17.70;99.90
23143;DHT22;11740;51.168;4.112;2022-07-06T00:06:04;17.70;99.90
23143;DHT22;11740;51.168;4.112;2022-07-06T00:08:32;17.50;99.90
23143;DHT22;11740;51.168;4.112;2022-07-06T00:10:59;17.50;99.90
23143;DHT22;11740;51.168;4.112;2022-07-06T00:13:27;17.50;99.90
23143;DHT22;11740;51.168;4.112;2022-07-06T00:15:54;17.40;99.90
23143;DHT22;11740;51.168;4.112;2022-07-06T00:18:21;17.40;99.90
23143;DHT22;11740;51.168;4.112;2022-07-06T00:20:49;17.40;99.90
23143;DHT22;11740;51.168;4.112;2022-07-06T00:23:16;17.30;99.90
23143;DHT22;11740;51.168;4.112;2022-07-06T00:25:46;17.30;99.90
23143;DHT22;11740;51.168;4.112;2022-07-06T00:28:15;17.30;99.90
23143;DHT22;11740;51.168;4.112;2022-07-06T00:30:42;17.20;99.90
23143;DHT22;11740;51.168;4.112;2022-07-06T00:33:09;17.10;99.90
23143;DHT22;11740;51.168;4.112;2022-07-06T00:35:37;17.00;99.90
23143;DHT22;11740;51.168;4.112;2022-07-06T00:38:05;17.00;99.90
23143;DHT22;11740;51.168;4.112;2022-07-06T00:40:34;16.90;99.90
23143;DHT22;11740;51.168;4.112;2022-07-06T00:43:01;16.80;99.90
23143;DHT22;11740;51.168;4.112;2022-07-06T00:45:28;16.80;99.90
23143;DHT22;11740;51.168;4.112;2022-07-06T00:47:55;16.70;99.90
23143;DHT22;11740;51.168;4.112;2022-07-06T00:50:23;16.70;99.90
23143;DHT22;11740;51.168;4.112;2022-07-06T00:52:54;16.60;99.90
23143;DHT22;11740;51.168;4.112;2022-07-06T00:55:25;16.60;99.90
23143;DHT22;11740;51.168;4.112;2022-07-06T00:57:54;16.40;99.90
23143;DHT22;11740;51.168;4.112;2022-07-06T01:00:24;16.50;99.90
23143;DHT22;11740;51.168;4.112;2022-07-06T01:02:53;16.50;99.90
23143;DHT22;11740;51.168;4.112;2022-07-06T01:05:22;16.50;99.90
23143;DHT22;11740;51.168;4.112;2022-07-06T01:07:51;16.40;99.90
23143;DHT22;11740;51.168;4.112;2022-07-06T01:10:20;16.40;99.90
23143;DHT22;11740;51.168;4.112;2022-07-06T01:12:48;16.30;99.90
23143;DHT22;11740;51.168;4.112;2022-07-06T01:15:21;16.30;99.90
23143;DHT22;11740;51.168;4.112;2022-07-06T01:17:50;16.20;99.90
23143;DHT22;11740;51.168;4.112;2022-07-06T01:22:46;16.10;99.90
23143;DHT22;11740;51.168;4.112;2022-07-06T01:25:14;16.00;99.90
23143;DHT22;11740;51.168;4.112;2022-07-06T01:27:42;15.90;99.90
23143;DHT22;11740;51.168;4.112;2022-07-06T01:30:11;15.90;99.90
23143;DHT22;11740;51.168;4.112;2022-07-06T01:32:40;15.90;99.90
23143;DHT22;11740;51.168;4.112;2022-07-06T01:35:11;15.80;99.90
23143;DHT22;11740;51.168;4.112;2022-07-06T01:37:40;15.80;99.90
23143;DHT22;11740;51.168;4.112;2022-07-06T01:40:09;15.80;99.90
23143;DHT22;11740;51.168;4.112;2022-07-06T01:42:38;15.70;1.00
23143;DHT22;11740;51.168;4.112;2022-07-06T01:45:06;15.50;1.00
23143;DHT22;11740;51.168;4.112;2022-07-06T01:47:34;15.40;1.00
23143;DHT22;11740;51.168;4.112;2022-07-06T01:50:05;15.30;1.00
23143;DHT22;11740;51.168;4.112;2022-07-06T01:52:34;15.30;1.00
23143;DHT22;11740;51.168;4.112;2022-07-06T01:55:01;15.30;1.00
23143;DHT22;11740;51.168;4.112;2022-07-06T01:57:28;15.30;1.00
23143;DHT22;11740;51.168;4.112;2022-07-06T01:59:55;15.40;99.90
23143;DHT22;11740;51.168;4.112;2022-07-06T02:02:22;15.30;99.90
23143;DHT22;11740;51.168;4.112;2022-07-06T02:04:49;15.30;99.90
23143;DHT22;11740;51.168;4.112;2022-07-06T02:07:17;15.30;99.90
23143;DHT22;11740;51.168;4.112;2022-07-06T02:09:44;15.20;99.90
23143;DHT22;11740;51.168;4.112;2022-07-06T02:12:11;15.10;99.90
23143;DHT22;11740;51.168;4.112;2022-07-06T02:14:38;15.10;99.90
23143;DHT22;11740;51.168;4.112;2022-07-06T02:17:05;15.10;1.00
23143;DHT22;11740;51.168;4.112;2022-07-06T02:19:32;15.00;1.00
23143;DHT22;11740;51.168;4.112;2022-07-06T02:21:58;15.00;1.00
23143;DHT22;11740;51.168;4.112;2022-07-06T02:24:25;15.00;1.00
23143;DHT22;11740;51.168;4.112;2022-07-06T02:26:52;14.90;1.00
23143;DHT22;11740;51.168;4.112;2022-07-06T02:29:19;14.80;6.50
23143;DHT22;11740;51.168;4.112;2022-07-06T02:31:46;14.70;1.00
23143;DHT22;11740;51.168;4.112;2022-07-06T02:34:14;14.70;1.00
23143;DHT22;11740;51.168;4.112;2022-07-06T02:36:41;14.70;1.00
23143;DHT22;11740;51.168;4.112;2022-07-06T02:39:08;14.70;1.00
23143;DHT22;11740;51.168;4.112;2022-07-06T02:41:35;14.60;1.00
23143;DHT22;11740;51.168;4.112;2022-07-06T02:44:02;14.70;99.90
23143;DHT22;11740;51.168;4.112;2022-07-06T02:46:29;14.70;99.90
23143;DHT22;11740;51.168;4.112;2022-07-06T02:48:56;14.70;99.90
23143;DHT22;11740;51.168;4.112;2022-07-06T02:51:23;14.60;99.90
23143;DHT22;11740;51.168;4.112;2022-07-06T02:53:50;14.50;99.90
23143;DHT22;11740;51.168;4.112;2022-07-06T02:56:17;14.50;1.00
23143;DHT22;11740;51.168;4.112;2022-07-06T02:58:44;14.50;99.90
23143;DHT22;11740;51.168;4.112;2022-07-06T03:01:12;14.40;99.90
23143;DHT22;11740;51.168;4.112;2022-07-06T03:03:39;14.30;99.90
23143;DHT22;11740;51.168;4.112;2022-07-06T03:06:06;14.30;99.90
23143;DHT22;11740;51.168;4.112;2022-07-06T03:08:33;14.30;99.90
23143;DHT22;11740;51.168;4.112;2022-07-06T03:11:01;14.20;99.90
23143;DHT22;11740;51.168;4.112;2022-07-06T03:13:28;14.30;99.90
23143;DHT22;11740;51.168;4.112;2022-07-06T03:15:55;14.20;99.90
23143;DHT22;11740;51.168;4.112;2022-07-06T03:18:22;14.10;99.90
23143;DHT22;11740;51.168;4.112;2022-07-06T03:20:50;14.10;99.90
23143;DHT22;11740;51.168;4.112;2022-07-06T03:23:17;14.10;99.90
23143;DHT22;11740;51.168;4.112;2022-07-06T03:25:45;14.10;99.90
23143;DHT22;11740;51.168;4.112;2022-07-06T03:28:12;14.00;99.90
23143;DHT22;11740;51.168;4.112;2022-07-06T03:30:39;14.00;99.90
23143;DHT22;11740;51.168;4.112;2022-07-06T03:33:06;13.80;1.00
23143;DHT22;11740;51.168;4.112;2022-07-06T03:35:33;13.70;1.00
23143;DHT22;11740;51.168;4.112;2022-07-06T03:38:00;13.70;1.00
23143;DHT22;11740;51.168;4.112;2022-07-06T03:40:27;13.60;1.00
23143;DHT22;11740;51.168;4.112;2022-07-06T03:42:56;13.60;1.00
23143;DHT22;11740;51.168;4.112;2022-07-06T03:45:23;13.50;81.20
23143;DHT22;11740;51.168;4.112;2022-07-06T03:47:50;13.30;99.90
23143;DHT22;11740;51.168;4.112;2022-07-06T03:50:17;13.30;99.90
23143;DHT22;11740;51.168;4.112;2022-07-06T03:52:44;13.30;99.90
23143;DHT22;11740;51.168;4.112;2022-07-06T03:55:11;13.40;99.90
23143;DHT22;11740;51.168;4.112;2022-07-06T03:57:39;13.20;1.00
23143;DHT22;11740;51.168;4.112;2022-07-06T04:00:08;13.30;1.00
23143;DHT22;11740;51.168;4.112;2022-07-06T04:02:35;13.20;1.00
23143;DHT22;11740;51.168;4.112;2022-07-06T04:05:03;13.10;1.00
23143;DHT22;11740;51.168;4.112;2022-07-06T04:07:30;13.10;1.00
23143;DHT22;11740;51.168;4.112;2022-07-06T04:09:57;13.20;99.90
23143;DHT22;11740;51.168;4.112;2022-07-06T04:12:24;13.10;1.00
23143;DHT22;11740;51.168;4.112;2022-07-06T04:14:52;13.00;1.00
23143;DHT22;11740;51.168;4.112;2022-07-06T04:17:18;13.00;99.90
23143;DHT22;11740;51.168;4.112;2022-07-06T04:20:04;13.10;1.00
23143;DHT22;11740;51.168;4.112;2022-07-06T04:22:31;13.00;74.50
23143;DHT22;11740;51.168;4.112;2022-07-06T04:24:59;13.00;1.00
23143;DHT22;11740;51.168;4.112;2022-07-06T04:27:26;12.90;1.00
23143;DHT22;11740;51.168;4.112;2022-07-06T04:29:53;13.00;1.00
23143;DHT22;11740;51.168;4.112;2022-07-06T04:32:20;12.90;1.00
23143;DHT22;11740;51.168;4.112;2022-07-06T04:34:51;13.00;99.90
23143;DHT22;11740;51.168;4.112;2022-07-06T04:37:19;13.00;99.90
23143;DHT22;11740;51.168;4.112;2022-07-06T04:39:46;13.10;1.00
23143;DHT22;11740;51.168;4.112;2022-07-06T04:42:13;13.00;99.90
23143;DHT22;11740;51.168;4.112;2022-07-06T04:44:40;13.00;1.00
23143;DHT22;11740;51.168;4.112;2022-07-06T04:47:07;13.00;99.90
23143;DHT22;11740;51.168;4.112;2022-07-06T04:49:35;13.00;99.90
23143;DHT22;11740;51.168;4.112;2022-07-06T04:52:02;13.00;99.90
23143;DHT22;11740;51.168;4.112;2022-07-06T04:54:29;13.00;1.00
23143;DHT22;11740;51.168;4.112;2022-07-06T04:56:56;13.10;99.90
23143;DHT22;11740;51.168;4.112;2022-07-06T04:59:23;13.00;78.60
23143;DHT22;11740;51.168;4.112;2022-07-06T05:01:50;13.00;64.50
23143;DHT22;11740;51.168;4.112;2022-07-06T05:04:17;13.00;90.20
23143;DHT22;11740;51.168;4.112;2022-07-06T05:06:47;12.90;1.00
23143;DHT22;11740;51.168;4.112;2022-07-06T05:09:14;13.00;1.00
23143;DHT22;11740;51.168;4.112;2022-07-06T05:11:41;13.00;99.90
23143;DHT22;11740;51.168;4.112;2022-07-06T05:14:08;13.00;1.00
23143;DHT22;11740;51.168;4.112;2022-07-06T05:16:36;13.00;34.60
23143;DHT22;11740;51.168;4.112;2022-07-06T05:19:03;13.10;1.00
23143;DHT22;11740;51.168;4.112;2022-07-06T05:21:30;13.10;99.90
23143;DHT22;11740;51.168;4.112;2022-07-06T05:23:57;13.10;99.90
23143;DHT22;11740;51.168;4.112;2022-07-06T05:26:24;13.20;1.00
23143;DHT22;11740;51.168;4.112;2022-07-06T05:28:51;13.20;1.00
23143;DHT22;11740;51.168;4.112;2022-07-06T05:31:18;13.30;99.90
23143;DHT22;11740;51.168;4.112;2022-07-06T05:33:45;13.30;99.90
23143;DHT22;11740;51.168;4.112;2022-07-06T05:36:12;13.40;1.00
23143;DHT22;11740;51.168;4.112;2022-07-06T05:38:39;13.40;1.00
23143;DHT22;11740;51.168;4.112;2022-07-06T05:41:06;13.50;37.90
23143;DHT22;11740;51.168;4.112;2022-07-06T05:43:37;13.60;1.00
23143;DHT22;11740;51.168;4.112;2022-07-06T05:46:05;13.60;99.90
23143;DHT22;11740;51.168;4.112;2022-07-06T05:48:32;13.60;1.00
23143;DHT22;11740;51.168;4.112;2022-07-06T05:51:17;13.70;28.20
23143;DHT22;11740;51.168;4.112;2022-07-06T05:53:44;13.80;39.20
23143;DHT22;11740;51.168;4.112;2022-07-06T05:56:14;13.90;99.90
23143;DHT22;11740;51.168;4.112;2022-07-06T05:58:41;13.90;1.00
23143;DHT22;11740;51.168;4.112;2022-07-06T06:01:08;14.00;1.00
23143;DHT22;11740;51.168;4.112;2022-07-06T06:03:35;14.10;99.90
23143;DHT22;11740;51.168;4.112;2022-07-06T06:06:03;14.20;1.00
23143;DHT22;11740;51.168;4.112;2022-07-06T06:08:30;14.20;1.00
23143;DHT22;11740;51.168;4.112;2022-07-06T06:10:57;14.20;99.90
23143;DHT22;11740;51.168;4.112;2022-07-06T06:13:25;14.20;99.90
23143;DHT22;11740;51.168;4.112;2022-07-06T06:15:52;14.20;99.90
23143;DHT22;11740;51.168;4.112;2022-07-06T06:18:19;14.30;1.00
23143;DHT22;11740;51.168;4.112;2022-07-06T06:20:47;14.30;1.00
23143;DHT22;11740;51.168;4.112;2022-07-06T06:23:14;14.30;99.90
23143;DHT22;11740;51.168;4.112;2022-07-06T06:25:41;14.30;99.90
23143;DHT22;11740;51.168;4.112;2022-07-06T06:28:10;14.40;71.10
23143;DHT22;11740;51.168;4.112;2022-07-06T06:30:38;14.50;99.90
23143;DHT22;11740;51.168;4.112;2022-07-06T06:35:45;14.60;99.90
23143;DHT22;11740;51.168;4.112;2022-07-06T06:38:18;14.70;1.00
23143;DHT22;11740;51.168;4.112;2022-07-06T06:40:46;14.70;1.00
23143;DHT22;11740;51.168;4.112;2022-07-06T06:43:14;14.70;1.00
23143;DHT22;11740;51.168;4.112;2022-07-06T06:45:41;14.80;1.00
23143;DHT22;11740;51.168;4.112;2022-07-06T06:48:08;14.90;1.00
23143;DHT22;11740;51.168;4.112;2022-07-06T06:50:42;14.90;99.90
23143;DHT22;11740;51.168;4.112;2022-07-06T06:53:09;15.00;1.00
23143;DHT22;11740;51.168;4.112;2022-07-06T06:55:36;15.00;9.00
23143;DHT22;11740;51.168;4.112;2022-07-06T06:58:03;15.10;78.80
23143;DHT22;11740;51.168;4.112;2022-07-06T07:00:30;15.20;1.00
23143;DHT22;11740;51.168;4.112;2022-07-06T07:02:57;15.30;1.00
23143;DHT22;11740;51.168;4.112;2022-07-06T07:05:24;15.40;99.90
23143;DHT22;11740;51.168;4.112;2022-07-06T07:07:51;15.40;1.00
23143;DHT22;11740;51.168;4.112;2022-07-06T07:10:18;15.50;1.00
23143;DHT22;11740;51.168;4.112;2022-07-06T07:12:46;15.50;99.90
23143;DHT22;11740;51.168;4.112;2022-07-06T07:15:14;15.50;1.00
23143;DHT22;11740;51.168;4.112;2022-07-06T07:17:42;15.70;99.90
23143;DHT22;11740;51.168;4.112;2022-07-06T07:20:09;15.80;1.00
23143;DHT22;11740;51.168;4.112;2022-07-06T07:22:37;15.70;87.00
23143;DHT22;11740;51.168;4.112;2022-07-06T07:25:05;15.80;1.00
23143;DHT22;11740;51.168;4.112;2022-07-06T07:27:33;15.80;99.90
23143;DHT22;11740;51.168;4.112;2022-07-06T07:30:00;15.90;1.00
23143;DHT22;11740;51.168;4.112;2022-07-06T07:32:29;16.00;1.00
23143;DHT22;11740;51.168;4.112;2022-07-06T07:34:56;15.90;46.30
23143;DHT22;11740;51.168;4.112;2022-07-06T07:37:23;16.00;1.00
23143;DHT22;11740;51.168;4.112;2022-07-06T07:39:50;16.00;1.00
23143;DHT22;11740;51.168;4.112;2022-07-06T07:42:18;16.10;1.00
23143;DHT22;11740;51.168;4.112;2022-07-06T07:44:45;16.10;1.00
23143;DHT22;11740;51.168;4.112;2022-07-06T07:47:12;16.20;1.00
23143;DHT22;11740;51.168;4.112;2022-07-06T07:49:39;16.20;1.00
23143;DHT22;11740;51.168;4.112;2022-07-06T07:52:06;16.20;99.90
23143;DHT22;11740;51.168;4.112;2022-07-06T07:54:34;16.40;1.00
23143;DHT22;11740;51.168;4.112;2022-07-06T07:57:01;16.60;1.00
23143;DHT22;11740;51.168;4.112;2022-07-06T07:59:28;16.60;1.00
23143;DHT22;11740;51.168;4.112;2022-07-06T08:01:58;16.70;1.00
23143;DHT22;11740;51.168;4.112;2022-07-06T08:04:25;16.80;1.00
23143;DHT22;11740;51.168;4.112;2022-07-06T08:06:53;17.10;1.00
23143;DHT22;11740;51.168;4.112;2022-07-06T08:09:27;17.20;99.90
23143;DHT22;11740;51.168;4.112;2022-07-06T08:11:54;17.40;1.00
23143;DHT22;11740;51.168;4.112;2022-07-06T08:14:21;17.60;99.90
23143;DHT22;11740;51.168;4.112;2022-07-06T08:16:49;17.80;60.20
23143;DHT22;11740;51.168;4.112;2022-07-06T08:19:16;18.00;1.00
23143;DHT22;11740;51.168;4.112;2022-07-06T08:21:43;18.10;1.00
23143;DHT22;11740;51.168;4.112;2022-07-06T08:24:11;18.20;1.00
23143;DHT22;11740;51.168;4.112;2022-07-06T08:26:38;18.20;1.00
23143;DHT22;11740;51.168;4.112;2022-07-06T08:29:05;18.30;99.90
23143;DHT22;11740;51.168;4.112;2022-07-06T08:31:32;18.40;99.90
23143;DHT22;11740;51.168;4.112;2022-07-06T08:34:21;18.50;1.00
23143;DHT22;11740;51.168;4.112;2022-07-06T08:36:49;18.60;99.90
23143;DHT22;11740;51.168;4.112;2022-07-06T08:39:17;18.60;99.90
23143;DHT22;11740;51.168;4.112;2022-07-06T08:41:47;18.70;99.90
23143;DHT22;11740;51.168;4.112;2022-07-06T08:44:16;18.80;99.90
23143;DHT22;11740;51.168;4.112;2022-07-06T08:46:44;18.90;99.90
23143;DHT22;11740;51.168;4.112;2022-07-06T08:49:17;19.00;99.90
23143;DHT22;11740;51.168;4.112;2022-07-06T08:51:45;19.20;1.00
23143;DHT22;11740;51.168;4.112;2022-07-06T08:54:12;19.40;1.00
23143;DHT22;11740;51.168;4.112;2022-07-06T08:56:40;19.50;1.00
23143;DHT22;11740;51.168;4.112;2022-07-06T08:59:15;19.50;1.00
23143;DHT22;11740;51.168;4.112;2022-07-06T09:01:44;19.50;1.00
23143;DHT22;11740;51.168;4.112;2022-07-06T09:04:15;19.50;1.00
23143;DHT22;11740;51.168;4.112;2022-07-06T09:06:46;19.50;1.00
23143;DHT22;11740;51.168;4.112;2022-07-06T09:09:19;19.50;1.00
23143;DHT22;11740;51.168;4.112;2022-07-06T09:11:49;19.50;1.00
23143;DHT22;11740;51.168;4.112;2022-07-06T09:14:17;19.40;1.00
23143;DHT22;11740;51.168;4.112;2022-07-06T09:16:49;19.40;1.00
23143;DHT22;11740;51.168;4.112;2022-07-06T09:19:22;19.40;1.00
23143;DHT22;11740;51.168;4.112;2022-07-06T09:21:49;19.40;1.00
23143;DHT22;11740;51.168;4.112;2022-07-06T09:24:17;19.40;1.00
23143;DHT22;11740;51.168;4.112;2022-07-06T09:26:45;19.40;1.00
23143;DHT22;11740;51.168;4.112;2022-07-06T09:29:14;19.50;99.90
23143;DHT22;11740;51.168;4.112;2022-07-06T09:31:41;19.50;99.90
23143;DHT22;11740;51.168;4.112;2022-07-06T09:34:09;19.70;99.90
23143;DHT22;11740;51.168;4.112;2022-07-06T09:36:45;19.70;99.90
23143;DHT22;11740;51.168;4.112;2022-07-06T09:39:26;19.80;99.90
23143;DHT22;11740;51.168;4.112;2022-07-06T09:41:59;19.80;99.90
23143;DHT22;11740;51.168;4.112;2022-07-06T09:44:34;19.90;99.90
23143;DHT22;11740;51.168;4.112;2022-07-06T09:47:11;20.00;99.90
23143;DHT22;11740;51.168;4.112;2022-07-06T09:49:39;20.10;79.10
23143;DHT22;11740;51.168;4.112;2022-07-06T09:52:08;20.10;33.00
23143;DHT22;11740;51.168;4.112;2022-07-06T09:54:38;20.10;99.90
23143;DHT22;11740;51.168;4.112;2022-07-06T09:57:06;20.20;99.90
23143;DHT22;11740;51.168;4.112;2022-07-06T09:59:36;20.20;55.00
23143;DHT22;11740;51.168;4.112;2022-07-06T10:02:05;20.20;1.00
23143;DHT22;11740;51.168;4.112;2022-07-06T10:04:33;20.20;1.00
23143;DHT22;11740;51.168;4.112;2022-07-06T10:07:01;20.30;1.00
23143;DHT22;11740;51.168;4.112;2022-07-06T10:09:29;20.40;1.00
23143;DHT22;11740;51.168;4.112;2022-07-06T10:12:00;20.50;1.00
23143;DHT22;11740;51.168;4.112;2022-07-06T10:14:30;20.60;1.00
23143;DHT22;11740;51.168;4.112;2022-07-06T10:17:01;20.60;1.00
23143;DHT22;11740;51.168;4.112;2022-07-06T10:19:31;20.80;1.00
23143;DHT22;11740;51.168;4.112;2022-07-06T10:22:00;20.80;1.00
23143;DHT22;11740;51.168;4.112;2022-07-06T10:24:29;20.80;1.00
23143;DHT22;11740;51.168;4.112;2022-07-06T10:26:57;21.00;1.00
23143;DHT22;11740;51.168;4.112;2022-07-06T10:29:25;21.10;1.00
23143;DHT22;11740;51.168;4.112;2022-07-06T10:31:54;21.20;1.00
23143;DHT22;11740;51.168;4.112;2022-07-06T10:34:21;21.30;1.00
23143;DHT22;11740;51.168;4.112;2022-07-06T10:36:50;21.30;1.00
23143;DHT22;11740;51.168;4.112;2022-07-06T10:39:37;21.40;1.00
23143;DHT22;11740;51.168;4.112;2022-07-06T10:42:49;21.40;1.00
23143;DHT22;11740;51.168;4.112;2022-07-06T10:50:54;21.60;1.00
23143;DHT22;11740;51.168;4.112;2022-07-06T10:53:27;21.70;1.00
23143;DHT22;11740;51.168;4.112;2022-07-06T10:55:56;21.80;1.00
23143;DHT22;11740;51.168;4.112;2022-07-06T11:01:11;22.00;1.00
23143;DHT22;11740;51.168;4.112;2022-07-06T11:06:33;22.30;1.00
23143;DHT22;11740;51.168;4.112;2022-07-06T11:09:10;22.40;1.00
23143;DHT22;11740;51.168;4.112;2022-07-06T11:11:39;22.50;1.00
23143;DHT22;11740;51.168;4.112;2022-07-06T11:14:15;22.50;1.00
23143;DHT22;11740;51.168;4.112;2022-07-06T11:21:47;22.70;1.00
23143;DHT22;11740;51.168;4.112;2022-07-06T11:24:18;22.80;1.00
23143;DHT22;11740;51.168;4.112;2022-07-06T11:26:49;22.80;1.00
23143;DHT22;11740;51.168;4.112;2022-07-06T11:29:19;22.80;1.00
23143;DHT22;11740;51.168;4.112;2022-07-06T11:31:53;22.90;1.00
23143;DHT22;11740;51.168;4.112;2022-07-06T11:34:24;22.90;1.00
23143;DHT22;11740;51.168;4.112;2022-07-06T11:37:15;22.90;99.90
23143;DHT22;11740;51.168;4.112;2022-07-06T11:39:44;22.80;99.90
23143;DHT22;11740;51.168;4.112;2022-07-06T11:42:14;23.00;1.00
23143;DHT22;11740;51.168;4.112;2022-07-06T11:44:46;23.10;1.00
23143;DHT22;11740;51.168;4.112;2022-07-06T11:47:13;23.30;99.90
23143;DHT22;11740;51.168;4.112;2022-07-06T11:49:50;23.30;99.90
23143;DHT22;11740;51.168;4.112;2022-07-06T11:52:19;23.40;99.90
23143;DHT22;11740;51.168;4.112;2022-07-06T11:54:46;23.40;99.90
23143;DHT22;11740;51.168;4.112;2022-07-06T11:57:13;23.50;99.90
23143;DHT22;11740;51.168;4.112;2022-07-06T11:59:41;23.50;99.90
23143;DHT22;11740;51.168;4.112;2022-07-06T12:02:14;23.50;99.90
23143;DHT22;11740;51.168;4.112;2022-07-06T12:04:45;23.70;99.90
23143;DHT22;11740;51.168;4.112;2022-07-06T12:07:16;23.80;99.90
23143;DHT22;11740;51.168;4.112;2022-07-06T12:09:46;23.80;99.90
23143;DHT22;11740;51.168;4.112;2022-07-06T12:12:14;24.00;99.90
23143;DHT22;11740;51.168;4.112;2022-07-06T12:14:43;24.20;99.90
23143;DHT22;11740;51.168;4.112;2022-07-06T12:17:12;24.30;99.90
23143;DHT22;11740;51.168;4.112;2022-07-06T12:19:42;24.30;99.90
23143;DHT22;11740;51.168;4.112;2022-07-06T12:22:10;24.30;99.90
23143;DHT22;11740;51.168;4.112;2022-07-06T12:24:42;24.30;99.90
23143;DHT22;11740;51.168;4.112;2022-07-06T12:27:17;24.50;99.90
23143;DHT22;11740;51.168;4.112;2022-07-06T12:29:46;24.40;99.90
23143;DHT22;11740;51.168;4.112;2022-07-06T12:32:19;24.10;99.90
23143;DHT22;11740;51.168;4.112;2022-07-06T12:35:23;24.20;99.90
23143;DHT22;11740;51.168;4.112;2022-07-06T12:37:56;24.40;99.90
23143;DHT22;11740;51.168;4.112;2022-07-06T12:40:26;24.30;99.90
23143;DHT22;11740;51.168;4.112;2022-07-06T12:42:57;24.40;99.90
23143;DHT22;11740;51.168;4.112;2022-07-06T12:45:28;24.50;99.90
23143;DHT22;11740;51.168;4.112;2022-07-06T12:48:04;24.60;99.90
23143;DHT22;11740;51.168;4.112;2022-07-06T12:50:36;24.60;99.90
23143;DHT22;11740;51.168;4.112;2022-07-06T12:53:06;24.70;99.90
23143;DHT22;11740;51.168;4.112;2022-07-06T12:56:11;24.70;99.90
23143;DHT22;11740;51.168;4.112;2022-07-06T12:58:39;24.70;99.90
23143;DHT22;11740;51.168;4.112;2022-07-06T13:01:07;24.90;99.90
23143;DHT22;11740;51.168;4.112;2022-07-06T13:03:42;25.00;99.90
23143;DHT22;11740;51.168;4.112;2022-07-06T13:06:09;25.10;99.90
23143;DHT22;11740;51.168;4.112;2022-07-06T13:08:36;25.00;99.90
23143;DHT22;11740;51.168;4.112;2022-07-06T13:11:03;25.00;99.90
23143;DHT22;11740;51.168;4.112;2022-07-06T13:13:30;25.00;99.90
23143;DHT22;11740;51.168;4.112;2022-07-06T13:15:58;25.10;99.90
23143;DHT22;11740;51.168;4.112;2022-07-06T13:18:24;25.30;99.90
23143;DHT22;11740;51.168;4.112;2022-07-06T13:20:52;25.40;99.90
23143;DHT22;11740;51.168;4.112;2022-07-06T13:23:19;25.50;99.90
23143;DHT22;11740;51.168;4.112;2022-07-06T13:25:45;25.70;99.90
23143;DHT22;11740;51.168;4.112;2022-07-06T13:28:12;25.70;99.90
23143;DHT22;11740;51.168;4.112;2022-07-06T13:30:39;25.90;99.90
23143;DHT22;11740;51.168;4.112;2022-07-06T13:33:07;26.10;99.90
23143;DHT22;11740;51.168;4.112;2022-07-06T13:35:33;26.00;99.90
23143;DHT22;11740;51.168;4.112;2022-07-06T13:38:00;26.10;99.90
23143;DHT22;11740;51.168;4.112;2022-07-06T13:40:28;26.10;99.90
23143;DHT22;11740;51.168;4.112;2022-07-06T13:42:55;26.10;99.90
23143;DHT22;11740;51.168;4.112;2022-07-06T13:45:22;26.20;99.90
23143;DHT22;11740;51.168;4.112;2022-07-06T13:47:50;26.20;99.90
23143;DHT22;11740;51.168;4.112;2022-07-06T13:50:18;26.30;99.90
23143;DHT22;11740;51.168;4.112;2022-07-06T13:52:45;26.50;99.90
23143;DHT22;11740;51.168;4.112;2022-07-06T13:55:12;26.20;99.90
23143;DHT22;11740;51.168;4.112;2022-07-06T13:57:39;26.30;99.90
23143;DHT22;11740;51.168;4.112;2022-07-06T14:00:09;26.40;99.90
23143;DHT22;11740;51.168;4.112;2022-07-06T14:02:36;26.30;99.90
23143;DHT22;11740;51.168;4.112;2022-07-06T14:05:03;26.30;99.90
23143;DHT22;11740;51.168;4.112;2022-07-06T14:07:31;26.60;99.90
23143;DHT22;11740;51.168;4.112;2022-07-06T14:09:58;26.60;99.90
23143;DHT22;11740;51.168;4.112;2022-07-06T14:12:25;26.60;99.90
23143;DHT22;11740;51.168;4.112;2022-07-06T14:14:53;26.70;99.90
23143;DHT22;11740;51.168;4.112;2022-07-06T14:17:20;26.90;99.90
23143;DHT22;11740;51.168;4.112;2022-07-06T14:19:49;27.00;99.90
23143;DHT22;11740;51.168;4.112;2022-07-06T14:22:16;27.20;99.90
23143;DHT22;11740;51.168;4.112;2022-07-06T14:24:43;27.20;99.90
23143;DHT22;11740;51.168;4.112;2022-07-06T14:27:10;27.20;99.90
23143;DHT22;11740;51.168;4.112;2022-07-06T14:29:37;27.20;99.90
23143;DHT22;11740;51.168;4.112;2022-07-06T14:32:04;27.20;99.90
23143;DHT22;11740;51.168;4.112;2022-07-06T14:34:32;27.20;99.90
23143;DHT22;11740;51.168;4.112;2022-07-06T14:36:58;27.00;99.90
23143;DHT22;11740;51.168;4.112;2022-07-06T14:39:25;27.10;99.90
23143;DHT22;11740;51.168;4.112;2022-07-06T14:41:52;26.90;99.90
23143;DHT22;11740;51.168;4.112;2022-07-06T14:44:19;27.00;99.90
23143;DHT22;11740;51.168;4.112;2022-07-06T14:46:46;27.00;99.90
23143;DHT22;11740;51.168;4.112;2022-07-06T14:49:13;26.70;99.90
23143;DHT22;11740;51.168;4.112;2022-07-06T14:51:46;26.70;99.90
23143;DHT22;11740;51.168;4.112;2022-07-06T14:54:14;26.60;99.90
23143;DHT22;11740;51.168;4.112;2022-07-06T14:56:41;26.60;99.90
23143;DHT22;11740;51.168;4.112;2022-07-06T14:59:10;26.80;99.90
23143;DHT22;11740;51.168;4.112;2022-07-06T15:01:52;26.80;99.90
23143;DHT22;11740;51.168;4.112;2022-07-06T15:04:19;27.00;99.90
23143;DHT22;11740;51.168;4.112;2022-07-06T15:06:47;27.20;99.90
23143;DHT22;11740;51.168;4.112;2022-07-06T15:09:21;27.20;99.90
23143;DHT22;11740;51.168;4.112;2022-07-06T15:11:48;27.30;99.90
23143;DHT22;11740;51.168;4.112;2022-07-06T15:14:15;27.50;99.90
23143;DHT22;11740;51.168;4.112;2022-07-06T15:16:44;27.50;99.90
23143;DHT22;11740;51.168;4.112;2022-07-06T15:19:11;27.50;99.90
23143;DHT22;11740;51.168;4.112;2022-07-06T15:21:40;27.70;99.90
23143;DHT22;11740;51.168;4.112;2022-07-06T15:24:08;27.80;99.90
23143;DHT22;11740;51.168;4.112;2022-07-06T15:26:34;27.80;99.90
23143;DHT22;11740;51.168;4.112;2022-07-06T15:29:02;27.80;99.90
23143;DHT22;11740;51.168;4.112;2022-07-06T15:31:30;27.90;99.90
23143;DHT22;11740;51.168;4.112;2022-07-06T15:33:58;28.00;99.90
23143;DHT22;11740;51.168;4.112;2022-07-06T15:36:25;28.00;99.90
23143;DHT22;11740;51.168;4.112;2022-07-06T15:38:53;28.00;99.90
23143;DHT22;11740;51.168;4.112;2022-07-06T15:41:20;28.20;99.90
23143;DHT22;11740;51.168;4.112;2022-07-06T15:43:47;28.30;99.90
23143;DHT22;11740;51.168;4.112;2022-07-06T15:46:20;28.30;99.90
23143;DHT22;11740;51.168;4.112;2022-07-06T15:48:48;28.50;99.90
23143;DHT22;11740;51.168;4.112;2022-07-06T15:51:15;28.50;99.90
23143;DHT22;11740;51.168;4.112;2022-07-06T15:53:42;28.50;99.90
23143;DHT22;11740;51.168;4.112;2022-07-06T15:56:12;28.50;99.90
23143;DHT22;11740;51.168;4.112;2022-07-06T15:58:40;28.40;99.90
23143;DHT22;11740;51.168;4.112;2022-07-06T16:01:07;28.50;99.90
23143;DHT22;11740;51.168;4.112;2022-07-06T16:03:35;28.50;99.90
23143;DHT22;11740;51.168;4.112;2022-07-06T16:06:05;28.60;99.90
23143;DHT22;11740;51.168;4.112;2022-07-06T16:08:36;28.70;99.90